Ir a foro Ir al Módulo  



logo_vatsim
logo_vatsur

 


Ruta
Julio 16 de 2014

Los invitamos a hacer uso de ésta gran herramienta!



 

 
Untitled Document
SKAR 251200Z 00000KT 9999 SCT030 16/15 A3005
SKBG 251200Z 19004KT 9999 FEW010 21/19 A2999
SKBO 251200Z 06004KT 9999 SCT018 11/09 A3036
SKBQ 251200Z 04009KT 8000 VCFG FEW012 27/25 A2981 RMK VCFG/SW
SKCG 251200Z 00000KT CAVOK 27/25 A2981
SKCL 251200Z 00000KT 9999 FEW023 SCT200 21/18 A2996
SKPE 251200Z 09006KT 9999 FEW016 SCT200 19/16 A3007
SKRG 251200Z 00000KT 9999 FEW020 SCT200 11/10 A3028